Time;durP1;ratioP1;P1;durP2;ratioP2;P2;SDS_P1;SDS_P2;PMS_P1;PMS_P2;Temp;Humidity;BMP_temperature;BMP_pressure;BME280_temperature;BME280_humidity;BME280_pressure;Samples;Min_cycle;Max_cycle;Signal;HPM_P1;HPM_P2
2021/03/20 00:00:36;;;;;;;7.60;5.93;;;;;;;4.15;64.15;97006.13;5049731;28;20827;-57
2021/03/20 00:03:02;;;;;;;8.30;6.57;;;;;;;4.11;64.24;96999.69;5049582;28;20417;-58
2021/03/20 00:05:28;;;;;;;7.30;6.50;;;;;;;4.07;64.78;96999.19;5049496;28;20447;-58
2021/03/20 00:07:55;;;;;;;7.33;5.93;;;;;;;4.08;64.29;97002.59;5058215;28;20671;-57
2021/03/20 00:10:24;;;;;;;8.67;6.53;;;;;;;4.04;64.22;97003.94;5049925;28;20281;-57
2021/03/20 00:12:50;;;;;;;7.57;6.73;;;;;;;3.98;64.26;97000.22;5049512;28;20837;-59
2021/03/20 00:15:19;;;;;;;7.10;5.83;;;;;;;3.97;64.36;96993.38;5065011;28;20449;-59
2021/03/20 00:17:44;;;;;;;8.30;6.20;;;;;;;3.94;64.87;96996.31;5068954;28;20475;-58
2021/03/20 00:20:13;;;;;;;7.13;5.40;;;;;;;3.91;65.09;96999.25;5069385;28;20411;-59
2021/03/20 00:22:39;;;;;;;8.20;6.37;;;;;;;3.90;65.40;97004.63;5067360;28;20189;-59
2021/03/20 00:25:06;;;;;;;6.73;6.00;;;;;;;3.87;64.93;97000.59;5064464;28;20765;-57
2021/03/20 00:27:32;;;;;;;7.33;6.63;;;;;;;3.68;64.80;97008.75;5054607;28;20256;-57
2021/03/20 00:29:57;;;;;;;7.07;6.10;;;;;;;3.61;65.26;97006.97;5053876;28;20512;-58
2021/03/20 00:32:23;;;;;;;8.30;6.40;;;;;;;3.62;64.88;97001.63;5065027;28;20190;-57
2021/03/20 00:34:48;;;;;;;7.13;5.80;;;;;;;3.56;65.87;97004.06;5066383;28;20190;-57
2021/03/20 00:37:13;;;;;;;6.70;6.00;;;;;;;3.57;65.55;96998.72;5072297;28;20228;-56
2021/03/20 00:39:43;;;;;;;6.20;5.60;;;;;;;3.53;65.72;97000.03;5070603;28;20577;-57
2021/03/20 00:42:09;;;;;;;5.90;5.30;;;;;;;3.56;65.49;97004.88;5061315;28;20172;-57
2021/03/20 00:44:34;;;;;;;7.60;6.07;;;;;;;3.51;66.23;97008.97;5072601;28;20407;-56
2021/03/20 00:47:00;;;;;;;7.17;6.40;;;;;;;3.51;65.93;97003.75;5057856;28;20434;-56
2021/03/20 00:49:26;;;;;;;9.73;6.40;;;;;;;3.41;66.66;96997.94;5053504;28;20208;-57
2021/03/20 00:51:51;;;;;;;7.70;6.40;;;;;;;3.36;66.84;96995.84;5052636;28;20746;-56
2021/03/20 00:54:17;;;;;;;5.47;4.80;;;;;;;3.26;67.58;97004.78;5064163;28;20188;-57
2021/03/20 00:56:42;;;;;;;7.17;5.57;;;;;;;3.27;67.49;96998.59;5074057;28;20199;-58
2021/03/20 00:59:07;;;;;;;6.80;6.00;;;;;;;3.30;66.85;96998.31;5076031;28;20600;-57
2021/03/20 01:01:33;;;;;;;6.23;5.20;;;;;;;3.32;67.06;97009.31;5066169;28;20210;-57
2021/03/20 01:03:58;;;;;;;7.43;5.50;;;;;;;3.22;67.65;97004.31;5055962;28;20218;-57
2021/03/20 01:06:27;;;;;;;8.53;5.60;;;;;;;3.20;67.83;97001.06;5055758;28;20270;-57
2021/03/20 01:08:54;;;;;;;7.80;5.60;;;;;;;3.09;68.51;97002.22;5061088;28;20188;-59
2021/03/20 01:11:20;;;;;;;6.77;6.07;;;;;;;3.20;68.29;97001.06;5076082;28;20412;-57
2021/03/20 01:13:46;;;;;;;7.33;6.20;;;;;;;3.25;67.86;97001.38;5075035;28;20452;-58
2021/03/20 01:16:13;;;;;;;8.40;6.33;;;;;;;3.26;68.10;97003.00;5058585;28;20457;-58
2021/03/20 01:18:39;;;;;;;6.37;5.70;;;;;;;3.30;67.73;96998.31;5055732;28;20206;-58
2021/03/20 01:21:06;;;;;;;6.63;5.90;;;;;;;3.26;68.26;97003.00;5055810;28;20426;-58
2021/03/20 01:23:31;;;;;;;6.43;5.40;;;;;;;3.32;67.96;96997.13;5055882;28;20426;-57
2021/03/20 01:25:57;;;;;;;7.67;5.40;;;;;;;3.36;67.93;97003.63;5055186;28;20429;-59
2021/03/20 01:28:28;;;;;;;7.00;6.30;;;;;;;3.39;68.18;97005.88;5056446;28;20195;-58
2021/03/20 01:30:55;;;;;;;7.40;6.20;;;;;;;3.44;67.66;96995.84;5056698;28;20177;-59
2021/03/20 01:33:20;;;;;;;7.27;6.57;;;;;;;3.42;67.97;96999.56;5063337;28;20424;-57
2021/03/20 01:35:46;;;;;;;6.33;5.40;;;;;;;3.45;67.48;96999.22;5075415;28;20428;-59
2021/03/20 01:38:12;;;;;;;8.47;6.10;;;;;;;3.39;67.80;97005.09;5070411;28;20225;-59
2021/03/20 01:40:42;;;;;;;6.90;6.07;;;;;;;3.45;68.07;97015.63;5075554;28;20497;-57
2021/03/20 01:43:13;;;;;;;7.10;6.30;;;;;;;3.51;67.76;97009.78;5075689;28;20162;-59
2021/03/20 01:45:38;;;;;;;6.47;5.60;;;;;;;3.53;67.58;97013.03;5057972;28;20420;-59
2021/03/20 01:48:27;;;;;;;7.17;5.70;;;;;;;3.47;67.77;97012.84;5071233;28;20438;-59
2021/03/20 01:50:56;;;;;;;7.50;5.63;;;;;;;3.50;68.21;97018.53;5073816;28;20638;-59
2021/03/20 01:53:47;;;;;;;6.80;6.10;;;;;;;3.52;68.28;97013.16;5070174;28;20765;-59
2021/03/20 01:56:17;;;;;;;6.17;5.10;;;;;;;3.54;68.46;97017.22;5072852;28;20444;-58
2021/03/20 01:58:44;;;;;;;6.90;5.50;;;;;;;3.57;68.01;97018.69;5073768;28;20453;-58
2021/03/20 02:01:18;;;;;;;6.67;6.03;;;;;;;3.59;68.60;97019.31;5065319;28;20422;-57
2021/03/20 02:03:44;;;;;;;8.77;6.63;;;;;;;3.65;68.81;97021.25;5075330;28;20808;-59
2021/03/20 02:06:10;;;;;;;7.47;6.23;;;;;;;3.67;69.06;97017.53;5071033;28;20427;-59
2021/03/20 02:08:38;;;;;;;6.77;6.17;;;;;;;3.69;68.71;97019.97;5058965;28;20993;-57
2021/03/20 02:11:32;;;;;;;7.40;6.40;;;;;;;3.68;69.29;97020.91;5055185;28;20424;-57
2021/03/20 02:14:12;;;;;;;8.23;6.40;;;;;;;3.74;69.10;97020.25;5056507;28;20830;-58
2021/03/20 02:16:41;;;;;;;9.20;6.00;;;;;;;3.65;69.20;97016.06;5055120;28;20462;-59
2021/03/20 02:19:13;;;;;;;8.80;6.47;;;;;;;3.65;69.83;97016.88;5074632;28;20425;-59
2021/03/20 02:21:49;;;;;;;6.57;5.70;;;;;;;3.65;69.37;97010.88;5074398;28;20413;-58
2021/03/20 02:24:43;;;;;;;9.70;6.50;;;;;;;3.64;69.87;97009.25;5072800;28;20417;-58
2021/03/20 02:27:33;;;;;;;7.77;6.53;;;;;;;3.63;70.14;97007.63;5054280;28;20444;-58
2021/03/20 02:30:19;;;;;;;6.70;5.80;;;;;;;3.66;70.22;97017.69;5073715;28;20827;-58
2021/03/20 02:33:20;;;;;;;6.47;5.40;;;;;;;3.67;70.71;97017.53;5059512;28;20421;-58
2021/03/20 02:36:04;;;;;;;7.20;6.50;;;;;;;3.65;70.64;97019.47;5074619;28;20417;-58
2021/03/20 02:38:47;;;;;;;7.23;6.00;;;;;;;3.47;71.06;97020.66;5061079;28;20460;-59
2021/03/20 02:41:27;;;;;;;7.50;5.97;;;;;;;3.39;71.57;97011.06;5074294;28;20766;-57
2021/03/20 02:43:55;;;;;;;7.80;5.87;;;;;;;3.40;71.87;97012.72;5074449;28;20402;-58
2021/03/20 02:46:34;;;;;;;8.20;6.33;;;;;;;3.30;71.95;97008.69;5063868;28;20454;-58
2021/03/20 02:48:59;;;;;;;8.70;6.40;;;;;;;3.20;72.95;97014.03;5061662;28;20858;-58
2021/03/20 02:51:49;;;;;;;7.50;6.50;;;;;;;3.31;72.22;97010.28;5074189;28;20498;-58
2021/03/20 02:54:26;;;;;;;7.90;6.87;;;;;;;3.43;72.24;97004.59;5068659;28;20174;-58
2021/03/20 02:56:54;;;;;;;6.83;6.10;;;;;;;3.61;72.00;97004.38;5054693;28;20503;-58
2021/03/20 02:59:25;;;;;;;12.13;6.87;;;;;;;3.62;72.29;96999.03;5054813;28;20421;-58
2021/03/20 03:01:54;;;;;;;6.93;6.27;;;;;;;3.72;72.11;96999.66;5053985;28;20540;-57
2021/03/20 03:04:24;;;;;;;9.50;7.70;;;;;;;3.85;71.88;96997.34;5054014;28;20399;-58
2021/03/20 03:06:55;;;;;;;8.07;7.27;;;;;;;3.91;71.35;97001.84;5068364;28;20420;-57
2021/03/20 03:09:34;;;;;;;9.50;7.00;;;;;;;3.92;71.34;96997.47;5060608;28;20814;-57
2021/03/20 03:12:06;;;;;;;10.50;7.27;;;;;;;3.95;71.56;96997.94;5074042;28;20433;-57
2021/03/20 03:14:46;;;;;;;7.20;6.50;;;;;;;3.86;72.08;96993.75;5063012;28;20414;-58
2021/03/20 03:17:15;;;;;;;8.17;6.27;;;;;;;3.89;71.66;97001.22;5060564;28;20452;-59
2021/03/20 03:19:47;;;;;;;9.10;7.07;;;;;;;3.97;71.39;96995.97;5066198;28;20514;-59
2021/03/20 03:22:18;;;;;;;7.87;7.07;;;;;;;4.06;71.47;96992.38;5054671;28;20413;-58
2021/03/20 03:24:45;;;;;;;8.50;7.50;;;;;;;4.06;71.10;97000.16;5064960;28;20815;-59
2021/03/20 03:27:14;;;;;;;8.10;7.30;;;;;;;4.12;71.42;96993.47;5053196;28;20909;-58
2021/03/20 03:29:41;;;;;;;8.27;6.70;;;;;;;4.02;71.07;96992.88;5053615;28;20908;-58
2021/03/20 03:32:09;;;;;;;8.40;7.50;;;;;;;4.09;71.07;96992.03;5053657;28;20474;-58
2021/03/20 03:34:46;;;;;;;7.87;6.90;;;;;;;4.09;71.41;96999.81;5053455;28;20469;-58
2021/03/20 03:37:21;;;;;;;9.53;7.90;;;;;;;4.15;70.77;97014.75;5053245;28;20538;-58
2021/03/20 03:39:53;;;;;;;8.33;7.50;;;;;;;4.08;71.37;97011.22;5054690;28;20445;-59
2021/03/20 03:42:20;;;;;;;8.77;7.87;;;;;;;4.16;71.67;97021.59;5053776;28;20728;-57
2021/03/20 03:44:51;;;;;;;7.70;6.90;;;;;;;4.09;71.24;97028.41;5056180;28;20430;-58
2021/03/20 03:47:19;;;;;;;7.80;7.00;;;;;;;4.13;71.73;97027.09;5054513;28;20426;-58
2021/03/20 03:49:45;;;;;;;9.23;8.07;;;;;;;4.08;71.99;97028.59;5072279;28;20449;-59
2021/03/20 03:52:13;;;;;;;10.73;8.20;;;;;;;4.03;72.13;97025.69;5071999;28;20988;-58
2021/03/20 03:54:39;;;;;;;10.23;7.23;;;;;;;4.05;71.06;97042.75;5073474;28;20260;-58
2021/03/20 03:57:38;;;;;;;8.77;7.87;;;;;;;3.53;72.67;97038.19;5072810;28;20451;-59
2021/03/20 04:00:27;;;;;;;9.70;7.40;;;;;;;3.49;73.04;97040.28;5072592;28;20415;-58
2021/03/20 04:03:03;;;;;;;9.50;7.90;;;;;;;3.73;72.95;97039.44;5058584;28;20425;-59
2021/03/20 04:05:38;;;;;;;9.27;7.47;;;;;;;3.90;72.83;97036.63;5071870;28;20409;-58
2021/03/20 04:08:25;;;;;;;9.90;8.37;;;;;;;3.95;72.40;97031.72;5052781;28;20423;-58
2021/03/20 04:11:04;;;;;;;8.80;7.57;;;;;;;3.97;71.89;97027.16;5053081;28;20391;-59
2021/03/20 04:13:41;;;;;;;10.03;9.00;;;;;;;3.92;72.64;97032.06;5055054;28;20510;-58
2021/03/20 04:16:17;;;;;;;9.03;8.13;;;;;;;3.97;72.22;97039.34;5072902;28;20437;-59
2021/03/20 04:19:03;;;;;;;8.33;7.43;;;;;;;3.95;72.19;97042.13;5072911;28;20454;-58
2021/03/20 04:21:28;;;;;;;11.13;8.20;;;;;;;3.91;72.31;97038.22;5061403;28;20509;-57
2021/03/20 04:24:06;;;;;;;8.93;8.00;;;;;;;3.94;72.29;97027.50;5056227;28;20528;-58
2021/03/20 04:26:41;;;;;;;8.27;7.47;;;;;;;3.97;72.68;97024.56;5072567;28;20166;-58
2021/03/20 04:29:20;;;;;;;9.60;7.77;;;;;;;3.95;72.11;97029.13;5062197;28;20448;-58
2021/03/20 04:32:00;;;;;;;8.87;8.07;;;;;;;3.90;72.12;97025.41;5057197;28;20410;-58
2021/03/20 04:34:30;;;;;;;7.90;7.07;;;;;;;3.94;71.60;97026.69;5066877;28;20461;-58
2021/03/20 04:37:03;;;;;;;7.57;6.87;;;;;;;3.73;72.23;97027.25;5056095;28;20957;-58
2021/03/20 04:39:33;;;;;;;11.53;8.00;;;;;;;3.83;72.39;97032.25;5056590;28;20948;-58
2021/03/20 04:41:59;;;;;;;7.50;6.80;;;;;;;3.89;71.29;97040.22;5056797;28;20398;-60
2021/03/20 04:44:24;;;;;;;8.03;7.23;;;;;;;3.83;72.28;97048.66;5075816;28;20425;-58
2021/03/20 04:46:50;;;;;;;8.87;8.03;;;;;;;3.84;71.31;97050.28;5076201;28;20202;-57
2021/03/20 04:49:33;;;;;;;12.00;7.57;;;;;;;3.82;71.67;97054.81;5076556;28;20230;-58
2021/03/20 04:52:06;;;;;;;9.70;8.13;;;;;;;3.89;71.68;97061.00;5076155;28;20176;-60
2021/03/20 04:54:32;;;;;;;11.27;7.90;;;;;;;3.78;72.47;97058.75;5056771;28;20941;-58
2021/03/20 04:57:15;;;;;;;9.63;8.27;;;;;;;3.79;72.00;97060.38;5055871;28;20566;-58
2021/03/20 04:59:51;;;;;;;9.33;8.43;;;;;;;3.77;72.25;97058.91;5056463;28;20586;-60
2021/03/20 05:02:30;;;;;;;10.07;8.60;;;;;;;3.67;72.77;97066.91;5076026;28;20485;-58
2021/03/20 05:05:01;;;;;;;9.53;7.70;;;;;;;3.51;73.33;97071.28;5076343;28;20411;-58
2021/03/20 05:07:31;;;;;;;10.97;8.73;;;;;;;3.52;73.92;97060.75;5072848;28;20510;-58
2021/03/20 05:10:01;;;;;;;8.03;7.30;;;;;;;3.35;73.41;97066.94;5076080;28;20900;-59
2021/03/20 05:12:29;;;;;;;9.67;8.23;;;;;;;3.33;74.25;97065.47;5060845;28;20923;-57
2021/03/20 05:15:22;;;;;;;8.53;7.63;;;;;;;3.57;73.45;97062.84;5076081;28;20495;-58
2021/03/20 05:17:48;;;;;;;9.57;7.70;;;;;;;3.66;73.10;97060.06;5062008;28;20463;-57
2021/03/20 05:20:13;;;;;;;9.87;8.60;;;;;;;3.73;72.16;97061.00;5055900;28;20426;-59
2021/03/20 05:22:39;;;;;;;8.90;7.70;;;;;;;3.73;72.31;97053.22;5056021;28;20664;-59
2021/03/20 05:25:05;;;;;;;9.43;7.70;;;;;;;3.80;72.13;97056.81;5055844;28;20634;-59
2021/03/20 05:27:33;;;;;;;7.73;6.90;;;;;;;3.66;72.20;97060.06;5056606;28;20165;-58
2021/03/20 05:29:59;;;;;;;8.40;7.60;;;;;;;3.60;71.79;97058.13;5054575;28;20414;-58
2021/03/20 05:32:32;;;;;;;8.80;7.90;;;;;;;3.58;72.75;97061.88;5057720;28;20570;-59
2021/03/20 05:34:59;;;;;;;8.70;7.10;;;;;;;3.66;72.95;97065.25;5055774;28;20642;-58
2021/03/20 05:37:28;;;;;;;8.47;7.60;;;;;;;3.69;72.10;97069.31;5055133;28;20974;-59
2021/03/20 05:39:53;;;;;;;10.40;8.40;;;;;;;3.72;72.43;97067.19;5055521;28;20438;-57
2021/03/20 05:42:28;;;;;;;9.47;7.63;;;;;;;3.75;72.49;97071.28;5072400;28;20966;-58
2021/03/20 05:45:31;;;;;;;8.53;7.73;;;;;;;3.70;72.11;97083.91;5075787;28;20618;-58
2021/03/20 05:48:26;;;;;;;8.57;7.67;;;;;;;3.67;72.18;97077.28;5064128;28;20468;-58
2021/03/20 05:51:28;;;;;;;8.47;7.53;;;;;;;3.55;72.67;97073.38;5055154;28;20571;-58
2021/03/20 05:54:20;;;;;;;8.83;7.37;;;;;;;3.47;72.74;97078.59;5055413;28;20404;-59
2021/03/20 05:57:01;;;;;;;9.30;8.40;;;;;;;3.48;72.89;97080.22;5054991;28;20549;-58
2021/03/20 05:59:52;;;;;;;9.90;8.20;;;;;;;3.47;72.98;97083.78;5055237;28;20419;-59
2021/03/20 06:02:43;;;;;;;9.10;7.73;;;;;;;3.57;72.93;97083.63;5055251;28;20411;-59
2021/03/20 06:05:30;;;;;;;8.90;7.50;;;;;;;3.51;73.19;97087.69;5055408;28;20760;-58
2021/03/20 06:08:17;;;;;;;8.90;7.40;;;;;;;3.15;74.91;97101.97;5055770;28;20534;-59
2021/03/20 06:11:13;;;;;;;9.20;7.40;;;;;;;3.07;74.99;97092.41;5072907;28;20424;-58
2021/03/20 06:13:47;;;;;;;9.83;7.80;;;;;;;3.36;73.27;97104.06;5055369;28;20499;-57
2021/03/20 06:16:21;;;;;;;8.93;7.97;;;;;;;3.43;73.55;97098.06;5054377;28;20411;-59
2021/03/20 06:18:58;;;;;;;8.20;7.40;;;;;;;3.18;73.78;97096.47;5054750;28;20493;-58
2021/03/20 06:22:02;;;;;;;8.40;6.70;;;;;;;3.12;74.72;97110.06;5055038;28;20438;-59
2021/03/20 06:24:47;;;;;;;8.83;7.07;;;;;;;3.38;74.05;97105.56;5054831;28;20421;-58
2021/03/20 06:27:18;;;;;;;8.20;7.30;;;;;;;3.32;73.82;97111.38;5055532;28;20513;-59
2021/03/20 06:29:57;;;;;;;8.30;7.40;;;;;;;3.27;74.11;97112.84;5054589;28;20755;-58
2021/03/20 06:32:42;;;;;;;8.43;6.37;;;;;;;3.45;73.27;97114.31;5067109;28;20425;-58
2021/03/20 06:35:37;;;;;;;8.40;7.50;;;;;;;3.37;73.71;97118.69;5074366;28;20419;-57
2021/03/20 06:38:04;;;;;;;8.53;7.73;;;;;;;3.52;73.07;97117.88;5057980;28;20455;-57
2021/03/20 06:40:29;;;;;;;8.40;7.40;;;;;;;3.67;72.47;97118.84;5054444;28;20412;-58
2021/03/20 06:42:57;;;;;;;7.87;7.00;;;;;;;3.76;72.26;97127.44;5054405;28;20403;-59
2021/03/20 06:45:27;;;;;;;8.63;7.93;;;;;;;3.74;72.39;97132.00;5054446;28;20173;-57
2021/03/20 06:47:56;;;;;;;7.03;6.33;;;;;;;3.77;71.92;97131.66;5055123;28;20953;-57
2021/03/20 06:50:33;;;;;;;6.73;6.03;;;;;;;3.57;71.76;97133.78;5061304;28;20421;-58
2021/03/20 06:53:03;;;;;;;7.07;5.77;;;;;;;3.62;71.63;97139.31;5065003;28;20459;-58
2021/03/20 06:55:32;;;;;;;7.80;6.53;;;;;;;3.76;70.62;97136.06;5072450;28;20798;-57
2021/03/20 06:58:03;;;;;;;7.00;6.30;;;;;;;3.65;70.93;97140.75;5056393;28;20472;-58
2021/03/20 07:00:32;;;;;;;8.10;6.40;;;;;;;3.46;71.27;97148.91;5055076;28;20426;-58
2021/03/20 07:03:28;;;;;;;6.10;5.50;;;;;;;3.53;71.19;97147.28;5054968;28;20419;-58
2021/03/20 07:05:56;;;;;;;8.87;5.77;;;;;;;3.54;70.76;97157.50;5053796;28;20450;-59
2021/03/20 07:08:57;;;;;;;8.17;6.20;;;;;;;3.37;71.03;97158.44;5059797;28;20447;-59
2021/03/20 07:11:37;;;;;;;5.87;5.33;;;;;;;3.55;70.31;97163.50;5053843;28;20723;-58
2021/03/20 07:14:08;;;;;;;6.20;5.17;;;;;;;3.60;70.51;97158.63;5054021;28;20404;-58
2021/03/20 07:16:57;;;;;;;7.00;5.20;;;;;;;3.56;69.92;97152.94;5053513;28;20756;-59
2021/03/20 07:19:24;;;;;;;4.97;4.40;;;;;;;3.56;69.04;97152.94;5052288;28;20870;-58
2021/03/20 07:21:58;;;;;;;5.30;4.37;;;;;;;3.65;68.15;97154.56;5053665;28;20422;-58
2021/03/20 07:24:37;;;;;;;4.10;3.40;;;;;;;3.57;67.32;97153.78;5054850;28;20427;-58
2021/03/20 07:27:14;;;;;;;4.80;4.33;;;;;;;3.51;67.11;97165.63;5053217;28;20416;-59
2021/03/20 07:29:56;;;;;;;3.90;3.60;;;;;;;3.55;67.52;97158.31;5053479;28;20895;-58
2021/03/20 07:32:24;;;;;;;5.47;4.60;;;;;;;3.63;65.79;97155.69;5054640;28;20912;-58
2021/03/20 07:34:54;;;;;;;4.80;4.33;;;;;;;3.65;65.52;97157.16;5053528;28;20473;-60
2021/03/20 07:37:19;;;;;;;3.80;3.33;;;;;;;3.69;65.46;97165.44;5053099;28;20461;-58
2021/03/20 07:39:55;;;;;;;4.10;3.70;;;;;;;3.81;65.33;97162.34;5052332;28;20975;-59
2021/03/20 07:42:30;;;;;;;4.77;4.20;;;;;;;3.90;65.32;97163.97;5058633;28;20695;-58
2021/03/20 07:45:18;;;;;;;4.43;4.03;;;;;;;3.80;64.84;97172.91;5062157;28;20489;-59
2021/03/20 07:47:53;;;;;;;3.60;3.30;;;;;;;3.79;64.66;97172.09;5053009;28;20428;-59
2021/03/20 07:50:18;;;;;;;4.20;3.80;;;;;;;3.85;64.28;97179.25;5053124;28;20451;-56
2021/03/20 07:53:03;;;;;;;5.40;4.87;;;;;;;3.97;63.37;97174.50;5073037;28;20440;-56
2021/03/20 07:55:35;;;;;;;4.40;4.00;;;;;;;3.93;62.42;97173.25;5073364;28;20172;-57
2021/03/20 07:58:10;;;;;;;4.50;4.13;;;;;;;3.77;62.83;97168.84;5069980;28;20450;-58
2021/03/20 08:00:45;;;;;;;5.03;4.53;;;;;;;3.96;61.85;97168.53;5052397;28;20501;-57
2021/03/20 08:03:17;;;;;;;4.07;3.77;;;;;;;3.86;62.50;97180.06;5067476;28;20583;-56
2021/03/20 08:05:42;;;;;;;4.30;4.00;;;;;;;3.97;62.06;97190.09;5055766;28;20450;-57
2021/03/20 08:08:20;;;;;;;4.50;4.20;;;;;;;3.92;60.06;97195.00;5056936;28;20827;-58
2021/03/20 08:10:51;;;;;;;4.50;4.10;;;;;;;4.06;61.56;97202.94;5057670;28;20174;-57
2021/03/20 08:13:49;;;;;;;4.70;4.30;;;;;;;4.00;61.20;97213.19;5058019;28;20428;-58
2021/03/20 08:16:18;;;;;;;5.97;4.23;;;;;;;4.03;59.57;97208.47;5056643;28;20413;-59
2021/03/20 08:18:45;;;;;;;4.00;3.70;;;;;;;3.82;58.62;97221.13;5061724;28;20474;-59
2021/03/20 08:21:25;;;;;;;4.83;3.87;;;;;;;3.90;59.52;97215.13;5077002;28;20892;-58
2021/03/20 08:23:51;;;;;;;4.30;4.00;;;;;;;3.76;58.95;97219.22;5077149;28;20409;-58
2021/03/20 08:26:31;;;;;;;5.63;3.67;;;;;;;3.71;58.77;97213.69;5076835;28;20762;-59
2021/03/20 08:29:14;;;;;;;4.07;3.67;;;;;;;3.85;58.72;97210.44;5075528;28;20209;-58
2021/03/20 08:31:50;;;;;;;4.10;3.80;;;;;;;4.13;58.35;97208.31;5075496;28;20409;-59
2021/03/20 08:34:27;;;;;;;3.80;3.50;;;;;;;4.18;57.52;97191.22;5075222;28;20516;-58
2021/03/20 08:36:55;;;;;;;4.50;3.70;;;;;;;4.06;56.94;97196.91;5070138;28;20543;-59
2021/03/20 08:39:42;;;;;;;3.50;3.20;;;;;;;4.10;57.37;97208.63;5056677;28;20427;-58
2021/03/20 08:42:46;;;;;;;3.77;3.47;;;;;;;4.13;57.02;97210.91;5056905;28;20845;-58
2021/03/20 08:45:23;;;;;;;4.80;4.03;;;;;;;3.99;56.39;97214.97;5056249;28;20451;-59
2021/03/20 08:48:14;;;;;;;3.47;3.27;;;;;;;3.94;56.62;97229.44;5056289;28;20436;-58
2021/03/20 08:50:56;;;;;;;3.40;3.00;;;;;;;3.93;54.33;97233.81;5056683;28;20416;-59
2021/03/20 08:53:39;;;;;;;3.00;2.70;;;;;;;4.16;54.53;97228.78;5056461;28;20836;-58
2021/03/20 08:56:45;;;;;;;3.50;3.20;;;;;;;3.95;53.57;97233.69;5056794;28;20411;-58
2021/03/20 08:59:17;;;;;;;3.57;2.80;;;;;;;4.10;52.94;97247.63;5056621;28;20450;-58
2021/03/20 09:01:52;;;;;;;3.10;2.80;;;;;;;3.90;51.46;97251.53;5071553;28;20414;-58
2021/03/20 09:04:23;;;;;;;2.43;2.23;;;;;;;3.74;51.49;97248.91;5076375;28;20404;-59
2021/03/20 09:07:14;;;;;;;2.33;2.23;;;;;;;3.81;51.85;97245.50;5075949;28;20413;-58
2021/03/20 09:09:58;;;;;;;2.90;2.70;;;;;;;3.57;50.05;97242.09;5059454;28;20422;-63
2021/03/20 09:12:28;;;;;;;2.60;2.47;;;;;;;3.36;50.95;97247.72;5057222;28;20422;-59
2021/03/20 09:14:53;;;;;;;2.40;2.20;;;;;;;3.56;50.14;97245.63;5056249;28;20410;-58
2021/03/20 09:17:25;;;;;;;4.07;2.43;;;;;;;3.74;53.13;97234.13;5067279;28;20443;-59
2021/03/20 09:19:59;;;;;;;2.97;2.77;;;;;;;3.93;52.81;97243.41;5076262;28;20560;-58
2021/03/20 09:22:29;;;;;;;2.80;2.60;;;;;;;3.80;51.04;97241.31;5055762;28;20408;-58
2021/03/20 09:25:06;;;;;;;2.60;2.40;;;;;;;3.96;52.76;97243.91;5056145;28;20398;-58
2021/03/20 09:28:03;;;;;;;2.70;2.50;;;;;;;4.01;52.48;97248.59;5055525;28;20408;-58
2021/03/20 09:30:50;;;;;;;3.00;2.80;;;;;;;4.14;53.52;97252.34;5054669;28;20444;-60
2021/03/20 09:33:28;;;;;;;3.57;3.27;;;;;;;4.31;52.83;97249.72;5055828;28;20413;-57
2021/03/20 09:36:01;;;;;;;4.83;3.00;;;;;;;4.32;53.76;97246.13;5058413;28;20429;-58
2021/03/20 09:38:35;;;;;;;3.90;3.60;;;;;;;4.45;53.27;97243.84;5075043;28;20458;-58
2021/03/20 09:41:08;;;;;;;3.63;3.27;;;;;;;4.62;50.74;97243.63;5070274;28;20426;-57
2021/03/20 09:44:11;;;;;;;4.53;3.40;;;;;;;4.78;52.50;97246.19;5075595;28;20417;-57
2021/03/20 09:46:39;;;;;;;3.87;3.50;;;;;;;4.76;51.29;97249.97;5085560;28;20417;-56
2021/03/20 09:49:25;;;;;;;3.17;2.90;;;;;;;4.77;49.67;97241.16;5095580;28;20487;-56
2021/03/20 09:54:21;;;;;;;2.87;2.67;;;;;;;5.42;47.21;97247.69;5055299;28;20440;-58
2021/03/20 09:56:51;;;;;;;3.43;2.40;;;;;;;5.51;46.82;97236.25;5054946;28;20176;-58
2021/03/20 09:59:35;;;;;;;2.80;2.03;;;;;;;5.38;46.31;97230.78;5056102;28;20479;-58
2021/03/20 10:02:09;;;;;;;2.80;2.50;;;;;;;5.69;45.35;97231.56;5074415;28;20408;-57
2021/03/20 10:05:03;;;;;;;2.77;2.57;;;;;;;5.67;42.72;97232.75;5056423;28;20458;-57
2021/03/20 10:07:35;;;;;;;2.50;2.30;;;;;;;5.66;45.02;97224.09;5054725;28;20905;-57
2021/03/20 10:10:10;;;;;;;2.80;2.50;;;;;;;5.34;40.07;97215.69;5077591;28;20415;-58
2021/03/20 10:12:47;;;;;;;4.50;2.70;;;;;;;5.82;45.35;97220.56;5081162;28;20415;-58
2021/03/20 10:18:11;;;;;;;2.17;2.00;;;;;;;6.00;44.81;97215.88;5074462;28;20475;-57
2021/03/20 10:20:51;;;;;;;2.90;2.00;;;;;;;6.09;43.65;97218.25;5070990;28;20181;-58
2021/03/20 10:23:20;;;;;;;2.67;2.47;;;;;;;6.19;42.58;97207.59;5074776;28;20404;-58
2021/03/20 10:25:51;;;;;;;2.83;2.63;;;;;;;6.32;44.16;97207.78;5074945;28;20903;-59
2021/03/20 10:28:18;;;;;;;1.93;1.83;;;;;;;6.44;42.26;97206.34;5067408;28;20523;-59
2021/03/20 10:31:03;;;;;;;2.90;2.60;;;;;;;6.60;41.34;97211.41;5062538;28;20977;-58
2021/03/20 10:33:32;;;;;;;3.40;2.30;;;;;;;6.45;42.75;97207.19;5054537;28;20414;-59
2021/03/20 10:36:31;;;;;;;2.50;2.30;;;;;;;6.35;41.48;97196.16;5053955;28;20432;-59
2021/03/20 10:38:56;;;;;;;2.00;1.90;;;;;;;6.72;42.02;97201.34;5054604;28;20473;-59
2021/03/20 10:41:33;;;;;;;2.40;2.20;;;;;;;6.56;41.50;97217.19;5054546;28;20923;-58
2021/03/20 10:44:15;;;;;;;2.60;2.40;;;;;;;6.52;43.25;97215.91;5051400;28;20639;-57
2021/03/20 10:46:41;;;;;;;2.87;2.57;;;;;;;6.69;41.83;97205.09;5059201;28;20429;-59
2021/03/20 10:49:21;;;;;;;2.80;2.47;;;;;;;6.85;40.01;97209.31;5069773;28;20443;-58
2021/03/20 10:51:50;;;;;;;2.77;2.57;;;;;;;6.94;40.99;97210.84;5050901;28;20622;-59
2021/03/20 10:54:19;;;;;;;3.13;2.83;;;;;;;6.68;42.81;97215.72;5052189;28;20414;-60
2021/03/20 10:56:47;;;;;;;3.17;2.30;;;;;;;6.80;42.14;97212.47;5069046;28;20405;-57
2021/03/20 10:59:44;;;;;;;3.20;2.90;;;;;;;6.90;42.00;97210.38;5056169;28;20445;-59
2021/03/20 11:02:23;;;;;;;3.00;2.40;;;;;;;7.10;42.05;97203.63;5069789;28;20431;-60
2021/03/20 11:04:51;;;;;;;2.87;2.67;;;;;;;7.23;41.10;97205.56;5064989;28;20409;-60
2021/03/20 11:07:21;;;;;;;2.93;2.73;;;;;;;7.21;41.00;97205.75;5057840;28;20773;-60
2021/03/20 11:09:47;;;;;;;2.63;2.50;;;;;;;7.38;40.86;97200.31;5051028;28;20990;-59
2021/03/20 11:12:22;;;;;;;3.03;2.60;;;;;;;7.23;41.21;97200.34;5050314;28;20426;-60
2021/03/20 11:14:56;;;;;;;3.23;3.03;;;;;;;7.32;42.16;97201.84;5050373;28;20171;-60
2021/03/20 11:17:28;;;;;;;3.20;2.60;;;;;;;7.49;40.28;97192.81;5049764;28;20487;-58
2021/03/20 11:20:09;;;;;;;2.87;2.67;;;;;;;7.25;41.16;97201.78;5050865;28;20432;-60
2021/03/20 11:22:39;;;;;;;2.83;2.37;;;;;;;7.13;40.21;97207.69;5050319;28;20417;-59
2021/03/20 11:25:17;;;;;;;3.40;3.10;;;;;;;7.07;41.02;97203.16;5060306;28;20421;-59
2021/03/20 11:27:43;;;;;;;4.43;3.00;;;;;;;7.13;42.55;97207.69;5058084;28;20521;-58
2021/03/20 11:30:17;;;;;;;3.37;3.07;;;;;;;7.00;38.81;97216.16;5060245;28;21033;-61
2021/03/20 11:32:45;;;;;;;3.53;3.23;;;;;;;6.95;44.30;97210.69;5066689;28;20447;-61
2021/03/20 11:35:31;;;;;;;2.90;2.60;;;;;;;7.42;41.99;97212.03;5061316;28;20444;-66
2021/03/20 11:38:02;;;;;;;3.00;2.80;;;;;;;7.40;42.02;97198.31;5060252;28;20473;-66
2021/03/20 11:40:27;;;;;;;5.10;3.30;;;;;;;7.56;40.16;97200.69;5069480;28;21032;-66
2021/03/20 11:42:58;;;;;;;3.30;3.00;;;;;;;7.68;42.36;97194.00;5055577;28;20426;-65
2021/03/20 11:45:29;;;;;;;2.60;2.40;;;;;;;7.86;39.72;97194.38;5064664;28;20182;-67
2021/03/20 11:47:58;;;;;;;3.27;2.97;;;;;;;7.24;39.77;97196.75;5069575;28;20435;-66
2021/03/20 11:50:28;;;;;;;3.40;3.20;;;;;;;7.49;41.41;97195.41;5069997;28;20450;-67
2021/03/20 11:53:00;;;;;;;3.80;3.40;;;;;;;7.54;40.81;97195.66;5060594;28;20424;-64
2021/03/20 11:55:39;;;;;;;2.93;2.73;;;;;;;7.86;39.77;97200.41;5062965;28;20432;-62
2021/03/20 11:58:23;;;;;;;4.33;3.07;;;;;;;7.92;40.05;97194.41;5069278;28;20890;-65
2021/03/20 12:00:49;;;;;;;3.80;3.50;;;;;;;8.07;41.59;97189.94;5064689;28;20505;-65
2021/03/20 12:03:26;;;;;;;3.63;2.97;;;;;;;8.00;41.22;97190.88;5068089;28;20561;-61
2021/03/20 12:06:12;;;;;;;3.50;3.20;;;;;;;8.12;42.24;97182.31;5053041;28;20638;-63
2021/03/20 12:08:43;;;;;;;3.17;2.97;;;;;;;8.28;39.63;97182.06;5053280;28;20429;-59
2021/03/20 12:11:11;;;;;;;4.20;3.20;;;;;;;8.17;40.76;97181.75;5053147;28;20420;-59
2021/03/20 12:13:56;;;;;;;3.40;3.10;;;;;;;7.90;41.94;97183.31;5068209;28;20763;-60
2021/03/20 12:16:33;;;;;;;3.60;3.30;;;;;;;8.05;37.89;97181.44;5072901;28;20453;-60
2021/03/20 12:19:20;;;;;;;3.57;3.27;;;;;;;8.10;40.72;97180.88;5073002;28;20463;-57
2021/03/20 12:21:56;;;;;;;2.93;2.73;;;;;;;8.19;38.89;97182.34;5073118;28;20437;-57